This is the latest recevied weather packets stored in our database for station/object KF0TNT. If no packets are shown the sender has not sent any weather packets the latest 10 day(s).
| Time | Temp. | Humidity | Pressure | Rain* | Wind** | Luminosity | Snow |
|---|---|---|---|---|---|---|---|
| 1777901868 | 12.22° C | 33% | 1014.1 hPa | 0 mm | - | 110 W/m² | - |
| 1777901564 | 11.67° C | 33% | 1014.6 hPa | 0 mm | - | 94 W/m² | - |
| 1777901262 | 11.67° C | 33% | 1014.3 hPa | 0 mm | - | 91 W/m² | - |
| 1777900959 | 11.67° C | 33% | 1014.1 hPa | 0 mm | - | 99 W/m² | - |
| 1777900657 | 11.67° C | 33% | 1014.1 hPa | 0 mm | - | 97 W/m² | - |
| 1777900354 | 11.67° C | 33% | 1014.3 hPa | 0 mm | - | 93 W/m² | - |
| 1777900051 | 11.11° C | 34% | 1014.3 hPa | 0 mm | - | 86 W/m² | - |
| 1777899746 | 11.11° C | 34% | 1014.3 hPa | 0 mm | - | 73 W/m² | - |
| 1777899444 | 11.11° C | 33% | 1014.1 hPa | 0 mm | - | 60 W/m² | - |
| 1777899142 | 10.56° C | 35% | 1014.4 hPa | 0 mm | - | 45 W/m² | - |
| 1777898839 | 10.56° C | 35% | 1014.3 hPa | 0 mm | - | 34 W/m² | - |
| 1777898536 | 10.56° C | 35% | 1014.1 hPa | 0 mm | - | 30 W/m² | - |
| 1777898234 | 10.56° C | 34% | 1014.4 hPa | 0 mm | - | 28 W/m² | - |
| 1777897931 | 10° C | 35% | 1014.4 hPa | 0 mm | - | 24 W/m² | - |
| 1777897627 | 10° C | 35% | 1014.3 hPa | 0 mm | - | 21 W/m² | - |
| 1777897322 | 9.44° C | 36% | 1014.3 hPa | 0 mm | - | 19 W/m² | - |
| 1777897019 | 8.89° C | 37% | 1014.1 hPa | 0 mm | - | 15 W/m² | - |
| 1777896716 | 8.33° C | 37% | 1014.3 hPa | 0 mm | - | 11 W/m² | - |
| 1777896413 | 7.78° C | 38% | 1014.3 hPa | 0 mm | - | 7 W/m² | - |
| 1777896110 | 7.22° C | 41% | 1014.4 hPa | 0 mm | - | 4 W/m² | - |
| 1777895808 | 7.22° C | 42% | 1014.1 hPa | 0 mm | - | 2 W/m² | - |
| 1777895505 | 7.78° C | 39% | 1013.9 hPa | 0 mm | - | 1 W/m² | - |
| 1777895203 | 7.22° C | 41% | 1013.9 hPa | 0 mm | - | 0 W/m² | - |
| 1777894900 | 7.22° C | 42% | 1013.8 hPa | 0 mm | - | 0 W/m² | - |
| 1777894597 | 7.22° C | 41% | 1013.8 hPa | 0 mm | - | 0 W/m² | - |
* Rain latest hour (hover to see other rain measurements)
** Current wind speed in m/s (hover to see current wind gust speed)